createdAt,value
2023-01-17T00:00:54.513Z,4.53
2023-01-17T00:03:22.788Z,4.43
2023-01-17T00:06:17.002Z,4.07
2023-01-17T00:09:03.056Z,3.63
2023-01-17T00:11:31.565Z,3.87
2023-01-17T00:14:01.482Z,4.27
2023-01-17T00:16:29.836Z,4.03
2023-01-17T00:19:12.219Z,5.03
2023-01-17T00:21:58.581Z,6.33
2023-01-17T00:24:44.603Z,5.87
2023-01-17T00:27:14.670Z,5.00
2023-01-17T00:29:43.572Z,5.27
2023-01-17T00:32:10.797Z,5.83
2023-01-17T00:34:37.981Z,4.80
2023-01-17T00:37:05.323Z,7.43
2023-01-17T00:39:32.555Z,3.03
2023-01-17T00:41:59.842Z,4.27
2023-01-17T00:44:45.697Z,4.50
2023-01-17T00:47:33.608Z,7.93
2023-01-17T00:50:19.742Z,3.93
2023-01-17T00:53:05.553Z,4.80
2023-01-17T00:55:52.371Z,3.87
2023-01-17T00:58:38.681Z,3.80
2023-01-17T01:01:24.823Z,2.60
2023-01-17T01:04:12.353Z,4.30
2023-01-17T01:06:58.158Z,2.90
2023-01-17T01:09:44.057Z,5.27
2023-01-17T01:12:30.053Z,4.07
2023-01-17T01:15:16.396Z,5.70
2023-01-17T01:18:02.446Z,3.87
2023-01-17T01:20:50.120Z,3.90
2023-01-17T01:23:36.073Z,5.37
2023-01-17T01:26:22.450Z,3.87
2023-01-17T01:29:08.448Z,7.13
2023-01-17T01:31:54.466Z,13.57
2023-01-17T01:34:23.345Z,5.77
2023-01-17T01:36:53.312Z,6.43
2023-01-17T01:39:21.711Z,5.17
2023-01-17T01:41:50.293Z,5.53
2023-01-17T01:44:37.564Z,5.73
2023-01-17T01:47:05.995Z,5.57
2023-01-17T01:49:34.558Z,10.73
2023-01-17T01:52:07.537Z,6.90
2023-01-17T01:54:37.546Z,7.70
2023-01-17T01:57:06.834Z,5.43
2023-01-17T01:59:35.810Z,6.80
2023-01-17T02:02:04.398Z,5.27
2023-01-17T02:04:32.763Z,4.60
2023-01-17T02:07:06.806Z,4.80
2023-01-17T02:09:36.646Z,7.23
2023-01-17T02:12:05.373Z,6.43
2023-01-17T02:14:33.908Z,4.93
2023-01-17T02:17:14.193Z,7.00
2023-01-17T02:20:03.836Z,5.63
2023-01-17T02:22:56.444Z,6.83
2023-01-17T02:25:35.751Z,5.00
2023-01-17T02:28:11.982Z,4.67
2023-01-17T02:30:43.507Z,6.40
2023-01-17T02:33:19.321Z,5.33
2023-01-17T02:35:57.498Z,5.10
2023-01-17T02:38:31.626Z,6.87
2023-01-17T02:41:05.586Z,5.80
2023-01-17T02:43:34.779Z,4.87
2023-01-17T02:46:04.773Z,5.07
2023-01-17T02:48:34.139Z,5.07
2023-01-17T02:51:13.615Z,5.70
2023-01-17T02:53:46.863Z,7.30
2023-01-17T02:56:21.529Z,4.80
2023-01-17T02:58:56.874Z,3.93
2023-01-17T03:01:31.084Z,4.50
2023-01-17T03:04:02.282Z,3.70
2023-01-17T03:06:34.238Z,2.87
2023-01-17T03:09:02.805Z,2.47
2023-01-17T03:11:31.321Z,4.17
2023-01-17T03:13:59.905Z,1.77
2023-01-17T03:16:30.842Z,1.97
2023-01-17T03:18:59.881Z,1.80
2023-01-17T03:21:28.298Z,1.30
2023-01-17T03:23:56.628Z,1.23
2023-01-17T03:26:27.610Z,1.47
2023-01-17T03:28:55.988Z,2.10
2023-01-17T03:31:24.529Z,1.30
2023-01-17T03:33:54.386Z,1.10
2023-01-17T03:36:22.869Z,1.47
2023-01-17T03:38:51.588Z,1.23
2023-01-17T03:41:19.710Z,1.00
2023-01-17T03:43:48.173Z,1.70
2023-01-17T03:46:20.527Z,1.47
2023-01-17T03:48:48.958Z,1.30
2023-01-17T03:51:19.178Z,1.60
2023-01-17T03:53:47.613Z,1.63
2023-01-17T03:56:16.640Z,1.60
2023-01-17T03:58:45.078Z,1.67
2023-01-17T04:01:13.883Z,1.60
2023-01-17T04:03:42.622Z,1.60
2023-01-17T04:06:11.005Z,1.90
2023-01-17T04:08:41.647Z,1.70
2023-01-17T04:11:10.052Z,4.70
2023-01-17T04:13:38.490Z,2.10
2023-01-17T04:16:07.484Z,1.83
2023-01-17T04:18:36.067Z,2.03
2023-01-17T04:21:04.475Z,2.13
2023-01-17T04:23:33.162Z,2.30
2023-01-17T04:26:03.708Z,2.20
2023-01-17T04:28:32.103Z,2.07
2023-01-17T04:31:00.690Z,2.17
2023-01-17T04:33:29.434Z,2.03
2023-01-17T04:35:57.857Z,1.97
2023-01-17T04:38:26.229Z,2.20
2023-01-17T04:40:54.587Z,1.80
2023-01-17T04:43:24.407Z,1.87
2023-01-17T04:45:56.162Z,1.50
2023-01-17T04:48:24.778Z,1.20
2023-01-17T04:50:53.250Z,1.13
2023-01-17T04:53:21.605Z,1.37
2023-01-17T04:55:50.146Z,2.10
2023-01-17T04:58:18.487Z,1.97
2023-01-17T05:00:51.081Z,3.30
2023-01-17T05:03:19.635Z,5.17
2023-01-17T05:05:48.203Z,3.03
2023-01-17T05:08:17.679Z,4.53
2023-01-17T05:10:47.994Z,5.30
2023-01-17T05:13:16.555Z,2.70
2023-01-17T05:15:45.412Z,3.40
2023-01-17T05:18:17.750Z,5.47
2023-01-17T05:20:47.087Z,5.30
2023-01-17T05:23:15.372Z,6.83
2023-01-17T05:25:44.849Z,4.90
2023-01-17T05:28:13.557Z,6.93
2023-01-17T05:30:42.013Z,8.27
2023-01-17T05:33:10.572Z,6.07
2023-01-17T05:35:40.489Z,7.77
2023-01-17T05:38:08.997Z,9.07
2023-01-17T05:40:37.359Z,5.47
2023-01-17T05:43:05.968Z,6.23
2023-01-17T05:45:34.948Z,7.67
2023-01-17T05:48:03.698Z,10.63
2023-01-17T05:50:33.619Z,8.87
2023-01-17T05:53:04.694Z,11.10
2023-01-17T05:55:33.232Z,10.63
2023-01-17T05:58:02.494Z,11.60
2023-01-17T06:00:30.870Z,14.67
2023-01-17T06:02:59.748Z,9.80
2023-01-17T06:05:29.372Z,13.40
2023-01-17T06:07:58.046Z,10.50
2023-01-17T06:10:28.381Z,11.63
2023-01-17T06:13:04.560Z,15.80
2023-01-17T06:15:33.124Z,10.17
2023-01-17T06:18:08.344Z,12.97
2023-01-17T06:20:37.171Z,7.43
2023-01-17T06:23:07.321Z,10.53
2023-01-17T06:25:39.609Z,12.77
2023-01-17T06:28:08.539Z,9.30
2023-01-17T06:30:38.027Z,7.33
2023-01-17T06:33:07.074Z,8.00
2023-01-17T06:35:36.850Z,7.20
2023-01-17T06:38:12.377Z,7.63
2023-01-17T06:40:42.346Z,8.97
2023-01-17T06:43:10.758Z,13.13
2023-01-17T06:45:39.251Z,6.87
2023-01-17T06:48:07.824Z,9.70
2023-01-17T06:50:36.341Z,13.23
2023-01-17T06:53:06.050Z,7.47
2023-01-17T06:55:34.960Z,8.17
2023-01-17T06:58:04.960Z,9.87
2023-01-17T07:00:35.281Z,15.07
2023-01-17T07:03:03.919Z,11.53
2023-01-17T07:05:32.916Z,8.40
2023-01-17T07:08:01.392Z,13.37
2023-01-17T07:10:29.935Z,13.57
2023-01-17T07:13:01.182Z,12.70
2023-01-17T07:15:31.096Z,10.87
2023-01-17T07:18:02.454Z,12.17
2023-01-17T07:20:32.487Z,14.53
2023-01-17T07:23:00.835Z,10.83
2023-01-17T07:25:29.216Z,15.77
2023-01-17T07:27:57.820Z,12.70
2023-01-17T07:30:27.011Z,8.90
2023-01-17T07:32:57.230Z,10.60
2023-01-17T07:35:27.172Z,10.17
2023-01-17T07:37:56.421Z,18.03
2023-01-17T07:40:25.464Z,12.50
2023-01-17T07:42:54.203Z,17.83
2023-01-17T07:45:22.499Z,10.37
2023-01-17T07:48:00.252Z,10.83
2023-01-17T07:50:28.811Z,11.13
2023-01-17T07:52:57.271Z,11.23
2023-01-17T07:55:25.634Z,15.60
2023-01-17T07:57:54.018Z,16.10
2023-01-17T08:00:23.252Z,8.23
2023-01-17T08:02:51.665Z,11.20
2023-01-17T08:05:22.036Z,9.63
2023-01-17T08:07:50.748Z,11.07
2023-01-17T08:10:19.435Z,8.27
2023-01-17T08:12:48.308Z,12.23
2023-01-17T08:15:17.054Z,14.23
2023-01-17T08:17:48.609Z,8.77
2023-01-17T08:20:17.322Z,12.03
2023-01-17T08:22:47.222Z,8.07
2023-01-17T08:25:16.156Z,13.43
2023-01-17T08:27:44.731Z,10.20
2023-01-17T08:30:13.804Z,9.40
2023-01-17T08:32:42.269Z,8.17
2023-01-17T08:35:11.124Z,14.57
2023-01-17T08:37:39.551Z,10.53
2023-01-17T08:40:11.201Z,6.70
2023-01-17T08:42:41.023Z,11.83
2023-01-17T08:45:10.560Z,7.97
2023-01-17T08:47:39.165Z,10.53
2023-01-17T08:50:08.112Z,11.47
2023-01-17T08:52:37.138Z,15.47
2023-01-17T08:55:06.727Z,8.50
2023-01-17T08:57:36.404Z,7.27
2023-01-17T09:00:05.507Z,7.40
2023-01-17T09:02:34.027Z,13.17
2023-01-17T09:05:02.383Z,12.17
2023-01-17T09:07:31.092Z,11.03
2023-01-17T09:09:59.479Z,7.93
2023-01-17T09:12:28.131Z,11.90
2023-01-17T09:14:57.925Z,12.53
2023-01-17T09:17:27.006Z,10.10
2023-01-17T09:19:55.341Z,8.57
2023-01-17T09:22:23.780Z,8.00
2023-01-17T09:24:52.367Z,10.60
2023-01-17T09:27:20.941Z,6.90
2023-01-17T09:29:49.508Z,8.67
2023-01-17T09:32:19.350Z,7.50
2023-01-17T09:34:48.351Z,10.40
2023-01-17T09:37:16.758Z,8.23
2023-01-17T09:39:45.138Z,6.90
2023-01-17T09:42:20.427Z,8.60
2023-01-17T09:44:51.645Z,6.57
2023-01-17T09:47:32.948Z,6.23
2023-01-17T09:50:05.053Z,9.73
2023-01-17T09:52:34.099Z,13.80
2023-01-17T09:55:02.730Z,7.87
2023-01-17T09:57:38.400Z,5.43
2023-01-17T10:00:12.818Z,4.53
2023-01-17T10:02:52.704Z,6.57
2023-01-17T10:05:27.257Z,13.23
2023-01-17T10:08:04.543Z,7.80
2023-01-17T10:10:36.501Z,9.00
2023-01-17T10:13:10.806Z,6.83
2023-01-17T10:16:00.106Z,9.23
2023-01-17T10:18:45.104Z,9.57
2023-01-17T10:21:15.913Z,5.43
2023-01-17T10:23:53.697Z,7.83
2023-01-17T10:26:24.376Z,3.10
2023-01-17T10:28:54.364Z,10.27
2023-01-17T10:31:24.652Z,6.37
2023-01-17T10:33:55.358Z,7.53
2023-01-17T10:36:24.914Z,8.63
2023-01-17T10:38:54.590Z,5.93
2023-01-17T10:41:26.151Z,6.33
2023-01-17T10:44:05.948Z,10.37
2023-01-17T10:46:36.134Z,13.57
2023-01-17T10:49:06.067Z,11.17
2023-01-17T10:51:50.872Z,9.93
2023-01-17T10:54:28.985Z,5.90
2023-01-17T10:56:57.461Z,11.80
2023-01-17T10:59:29.775Z,12.77
2023-01-17T11:01:58.320Z,11.23
2023-01-17T11:04:32.800Z,10.97
2023-01-17T11:07:19.113Z,8.37
2023-01-17T11:09:48.461Z,7.70
2023-01-17T11:12:30.982Z,10.17
2023-01-17T11:15:01.909Z,11.33
2023-01-17T11:17:33.115Z,10.73
2023-01-17T11:20:20.111Z,6.00
2023-01-17T11:23:01.253Z,6.43
2023-01-17T11:25:33.103Z,6.53
2023-01-17T11:28:03.581Z,9.60
2023-01-17T11:30:31.948Z,8.97
2023-01-17T11:33:01.308Z,4.07
2023-01-17T11:35:31.697Z,6.10
2023-01-17T11:38:05.298Z,7.37
2023-01-17T11:40:35.497Z,6.07
2023-01-17T11:43:05.662Z,7.27
2023-01-17T11:45:34.531Z,7.20
2023-01-17T11:48:06.633Z,8.53
2023-01-17T11:50:37.412Z,7.93
2023-01-17T11:53:09.431Z,11.73
2023-01-17T11:55:38.302Z,7.93
2023-01-17T11:58:06.789Z,7.70
2023-01-17T12:00:40.135Z,11.63
2023-01-17T12:03:24.272Z,6.90
2023-01-17T12:05:58.610Z,11.77
2023-01-17T12:08:33.129Z,11.93
2023-01-17T12:11:05.303Z,4.90
2023-01-17T12:13:55.978Z,5.03
2023-01-17T12:16:35.954Z,12.90
2023-01-17T12:19:14.521Z,5.47
2023-01-17T12:21:50.372Z,10.10
2023-01-17T12:24:30.411Z,7.10
2023-01-17T12:27:05.879Z,15.37
2023-01-17T12:29:45.776Z,6.90
2023-01-17T12:32:34.290Z,9.10
2023-01-17T12:35:09.470Z,7.10
2023-01-17T12:37:40.405Z,5.07
2023-01-17T12:40:17.388Z,3.97
2023-01-17T12:42:49.512Z,4.63
2023-01-17T12:45:22.839Z,8.43
2023-01-17T12:47:56.044Z,12.20
2023-01-17T12:50:30.053Z,3.87
2023-01-17T12:53:04.811Z,6.23
2023-01-17T12:55:38.311Z,3.40
2023-01-17T12:58:08.811Z,7.37
2023-01-17T13:00:39.820Z,9.43
2023-01-17T13:03:13.246Z,9.33
2023-01-17T13:05:42.333Z,4.43
2023-01-17T13:08:18.016Z,7.20
2023-01-17T13:10:51.237Z,8.20
2023-01-17T13:13:22.515Z,9.17
2023-01-17T13:15:51.760Z,7.20
2023-01-17T13:18:25.645Z,4.53
2023-01-17T13:21:13.446Z,6.17
2023-01-17T13:23:49.607Z,6.23
2023-01-17T13:26:22.936Z,6.33
2023-01-17T13:28:55.092Z,7.47
2023-01-17T13:31:28.165Z,4.67
2023-01-17T13:34:03.261Z,4.67
2023-01-17T13:36:40.482Z,7.83
2023-01-17T13:39:33.183Z,5.80
2023-01-17T13:42:10.944Z,9.90
2023-01-17T13:44:39.309Z,5.87
2023-01-17T13:47:09.176Z,4.40
2023-01-17T13:49:48.462Z,8.17
2023-01-17T13:52:35.779Z,8.50
2023-01-17T13:55:07.172Z,5.10
2023-01-17T13:57:43.737Z,3.70
2023-01-17T14:00:31.247Z,4.17
2023-01-17T14:02:59.525Z,4.40
2023-01-17T14:05:49.293Z,3.07
2023-01-17T14:08:18.662Z,4.03
2023-01-17T14:10:49.194Z,3.23
2023-01-17T14:13:30.532Z,4.50
2023-01-17T14:15:59.168Z,3.73
2023-01-17T14:18:33.446Z,3.20
2023-01-17T14:21:07.430Z,2.83
2023-01-17T14:23:56.978Z,4.63
2023-01-17T14:26:31.619Z,5.77
2023-01-17T14:29:01.407Z,3.30
2023-01-17T14:31:29.878Z,3.63
2023-01-17T14:34:12.728Z,6.83
2023-01-17T14:36:41.295Z,2.47
2023-01-17T14:39:22.097Z,2.50
2023-01-17T14:41:52.143Z,9.97
2023-01-17T14:44:20.822Z,2.70
2023-01-17T14:46:50.495Z,5.17
2023-01-17T14:49:24.076Z,10.60
2023-01-17T14:52:02.209Z,4.27
2023-01-17T14:54:31.622Z,1.73
2023-01-17T14:57:24.499Z,2.13
2023-01-17T15:00:13.020Z,1.40
2023-01-17T15:02:43.213Z,4.63
2023-01-17T15:05:15.489Z,5.00
2023-01-17T15:07:44.935Z,3.77
2023-01-17T15:10:14.893Z,3.23
2023-01-17T15:12:47.106Z,5.33
2023-01-17T15:15:32.186Z,4.03
2023-01-17T15:18:20.505Z,3.30
2023-01-17T15:20:57.393Z,1.43
2023-01-17T15:23:29.910Z,9.07
2023-01-17T15:25:58.378Z,4.63
2023-01-17T15:28:28.493Z,2.90
2023-01-17T15:31:10.512Z,1.37
2023-01-17T15:33:41.703Z,7.10
2023-01-17T15:36:11.862Z,1.70
2023-01-17T15:38:42.388Z,4.17
2023-01-17T15:41:12.900Z,4.73
2023-01-17T15:43:46.358Z,1.33
2023-01-17T15:46:25.769Z,3.80
2023-01-17T15:48:54.203Z,4.93
2023-01-17T15:51:33.751Z,2.73
2023-01-17T15:54:02.621Z,7.43
2023-01-17T15:56:32.727Z,12.07
2023-01-17T15:59:19.643Z,8.13
2023-01-17T16:01:56.290Z,7.73
2023-01-17T16:04:34.730Z,9.80
2023-01-17T16:07:20.710Z,5.27
2023-01-17T16:09:49.815Z,3.07
2023-01-17T16:12:18.226Z,5.30
2023-01-17T16:15:06.181Z,8.83
2023-01-17T16:17:36.454Z,4.30
2023-01-17T16:20:05.325Z,2.17
2023-01-17T16:22:33.529Z,4.77
2023-01-17T16:25:01.952Z,12.77
2023-01-17T16:27:30.313Z,5.53
2023-01-17T16:29:59.311Z,3.53
2023-01-17T16:32:28.980Z,9.10
2023-01-17T16:34:58.781Z,10.97
2023-01-17T16:37:27.209Z,6.43
2023-01-17T16:39:55.655Z,6.20
2023-01-17T16:42:24.216Z,5.03
2023-01-17T16:44:52.679Z,5.07
2023-01-17T16:47:20.968Z,1.97
2023-01-17T16:49:49.497Z,3.80
2023-01-17T16:52:18.982Z,2.80
2023-01-17T16:54:47.321Z,2.80
2023-01-17T16:57:15.798Z,6.03
2023-01-17T16:59:50.626Z,2.43
2023-01-17T17:02:19.801Z,2.57
2023-01-17T17:04:48.151Z,2.83
2023-01-17T17:07:16.634Z,6.87
2023-01-17T17:09:46.409Z,4.30
2023-01-17T17:12:14.966Z,3.50
2023-01-17T17:14:43.409Z,11.67
2023-01-17T17:17:11.844Z,4.37
2023-01-17T17:19:40.326Z,4.20
2023-01-17T17:22:08.925Z,4.17
2023-01-17T17:24:37.302Z,2.47
2023-01-17T17:27:07.075Z,2.63
2023-01-17T17:29:36.227Z,1.90
2023-01-17T17:32:04.501Z,2.30
2023-01-17T17:34:34.991Z,2.00
2023-01-17T17:37:03.933Z,1.87
2023-01-17T17:39:32.591Z,3.67
2023-01-17T17:42:01.175Z,3.43
2023-01-17T17:44:30.923Z,3.67
2023-01-17T17:46:59.749Z,5.87
2023-01-17T17:49:28.086Z,3.17
2023-01-17T17:51:56.531Z,2.47
2023-01-17T17:54:27.403Z,6.53
2023-01-17T17:56:55.908Z,6.83
2023-01-17T17:59:24.305Z,5.20
2023-01-17T18:01:54.295Z,10.63
2023-01-17T18:04:22.926Z,3.27
2023-01-17T18:06:51.359Z,3.53
2023-01-17T18:09:19.831Z,2.63
2023-01-17T18:11:48.436Z,7.53
2023-01-17T18:14:20.847Z,3.87
2023-01-17T18:16:50.715Z,3.40
2023-01-17T18:19:21.979Z,2.53
2023-01-17T18:21:51.611Z,3.07
2023-01-17T18:24:21.915Z,9.63
2023-01-17T18:26:51.868Z,8.33
2023-01-17T18:29:21.364Z,12.93
2023-01-17T18:31:51.071Z,9.67
2023-01-17T18:34:24.191Z,7.53
2023-01-17T18:36:53.125Z,9.20
2023-01-17T18:39:22.659Z,3.97
2023-01-17T18:41:51.262Z,7.77
2023-01-17T18:44:21.937Z,4.57
2023-01-17T18:46:51.432Z,4.20
2023-01-17T18:49:21.473Z,3.83
2023-01-17T18:51:51.248Z,5.33
2023-01-17T18:54:20.314Z,2.87
2023-01-17T18:56:48.763Z,2.57
2023-01-17T18:59:18.507Z,4.40
2023-01-17T19:01:50.099Z,7.53
2023-01-17T19:04:18.997Z,5.20
2023-01-17T19:06:50.128Z,3.67
2023-01-17T19:09:18.494Z,2.50
2023-01-17T19:11:47.543Z,3.87
2023-01-17T19:14:16.250Z,6.93
2023-01-17T19:16:45.003Z,2.60
2023-01-17T19:19:14.806Z,9.33
2023-01-17T19:21:43.482Z,4.63
2023-01-17T19:24:14.397Z,3.33
2023-01-17T19:26:44.076Z,7.00
2023-01-17T19:29:13.004Z,7.73
2023-01-17T19:31:43.598Z,11.93
2023-01-17T19:34:13.833Z,4.90
2023-01-17T19:36:42.474Z,3.43
2023-01-17T19:39:10.967Z,4.23
2023-01-17T19:41:43.141Z,3.20
2023-01-17T19:44:13.989Z,4.20
2023-01-17T19:46:42.336Z,4.83
2023-01-17T19:49:11.180Z,6.67
2023-01-17T19:51:40.568Z,3.53
2023-01-17T19:54:09.084Z,4.53
2023-01-17T19:56:37.470Z,2.17
2023-01-17T19:59:07.296Z,5.90
2023-01-17T20:01:36.273Z,4.43
2023-01-17T20:04:05.324Z,5.80
2023-01-17T20:06:35.213Z,13.57
2023-01-17T20:09:03.873Z,4.83
2023-01-17T20:11:32.363Z,5.60
2023-01-17T20:14:01.135Z,3.40
2023-01-17T20:16:31.899Z,3.13
2023-01-17T20:19:02.913Z,4.67
2023-01-17T20:21:31.947Z,16.47
2023-01-17T20:24:03.041Z,4.83
2023-01-17T20:26:36.764Z,5.37
2023-01-17T20:29:07.339Z,3.30
2023-01-17T20:31:38.467Z,7.47
2023-01-17T20:34:07.353Z,7.20
2023-01-17T20:36:36.975Z,4.57
2023-01-17T20:39:06.060Z,9.37
2023-01-17T20:41:35.051Z,6.10
2023-01-17T20:44:04.331Z,4.33
2023-01-17T20:46:35.701Z,10.20
2023-01-17T20:49:07.550Z,9.00
2023-01-17T20:51:38.391Z,8.43
2023-01-17T20:54:07.119Z,4.83
2023-01-17T20:56:37.236Z,6.13
2023-01-17T20:59:06.318Z,4.00
2023-01-17T21:01:34.969Z,9.37
2023-01-17T21:04:05.520Z,7.50
2023-01-17T21:06:33.940Z,8.20
2023-01-17T21:09:04.574Z,6.17
2023-01-17T21:11:34.129Z,7.63
2023-01-17T21:14:02.715Z,9.63
2023-01-17T21:16:32.218Z,9.50
2023-01-17T21:19:00.886Z,5.97
2023-01-17T21:21:30.762Z,9.83
2023-01-17T21:24:00.136Z,6.10
2023-01-17T21:26:29.311Z,8.33
2023-01-17T21:28:58.083Z,7.47
2023-01-17T21:31:27.371Z,6.57
2023-01-17T21:33:56.495Z,9.20
2023-01-17T21:36:26.212Z,6.93
2023-01-17T21:38:57.271Z,4.53
2023-01-17T21:41:26.555Z,9.67
2023-01-17T21:43:59.023Z,8.60
2023-01-17T21:46:27.901Z,10.03
2023-01-17T21:48:56.721Z,10.67
2023-01-17T21:51:45.596Z,4.70
2023-01-17T21:54:15.537Z,7.73
2023-01-17T21:57:01.617Z,15.40
2023-01-17T21:59:32.457Z,10.67
2023-01-17T22:02:00.907Z,7.13
2023-01-17T22:04:29.511Z,7.10
2023-01-17T22:06:58.698Z,7.87
2023-01-17T22:09:28.612Z,7.90
2023-01-17T22:11:57.107Z,7.33
2023-01-17T22:14:25.962Z,9.50
2023-01-17T22:16:54.400Z,16.83
2023-01-17T22:19:22.832Z,17.70
2023-01-17T22:21:51.208Z,13.10
2023-01-17T22:24:19.739Z,11.50
2023-01-17T22:26:49.468Z,12.73
2023-01-17T22:29:18.923Z,10.70
2023-01-17T22:31:47.881Z,17.67
2023-01-17T22:34:16.505Z,9.47
2023-01-17T22:36:45.132Z,14.30
2023-01-17T22:39:13.730Z,15.87
2023-01-17T22:41:42.129Z,13.87
2023-01-17T22:44:12.196Z,19.57
2023-01-17T22:46:41.502Z,11.07
2023-01-17T22:49:15.806Z,12.57
2023-01-17T22:51:43.871Z,9.33
2023-01-17T22:54:12.473Z,15.73
2023-01-17T22:56:40.858Z,12.43
2023-01-17T22:59:11.678Z,7.10
2023-01-17T23:01:41.586Z,10.30
2023-01-17T23:04:13.783Z,17.70
2023-01-17T23:06:42.984Z,10.70
2023-01-17T23:09:12.332Z,9.17
2023-01-17T23:11:46.786Z,12.27
2023-01-17T23:14:17.289Z,13.63
2023-01-17T23:17:06.053Z,13.13
2023-01-17T23:19:35.832Z,6.33
2023-01-17T23:22:21.878Z,8.00
2023-01-17T23:24:51.963Z,9.03
2023-01-17T23:27:39.199Z,9.73
2023-01-17T23:30:10.784Z,8.03
2023-01-17T23:32:40.924Z,14.30
2023-01-17T23:35:09.470Z,12.50
2023-01-17T23:37:51.755Z,12.07
2023-01-17T23:40:20.215Z,8.47
2023-01-17T23:43:06.280Z,13.53
2023-01-17T23:45:36.108Z,8.83
2023-01-17T23:48:09.463Z,8.47
2023-01-17T23:50:38.458Z,8.20
2023-01-17T23:53:08.098Z,15.20
2023-01-17T23:55:37.447Z,10.17
2023-01-17T23:58:06.559Z,8.83
